Time;durP1;ratioP1;P1;durP2;ratioP2;P2;SDS_P1;SDS_P2;PMS_P1;PMS_P2;Temp;Humidity;BMP_temperature;BMP_pressure;BME280_temperature;BME280_humidity;BME280_pressure;Samples;Min_cycle;Max_cycle;Signal;HPM_P1;HPM_P2
2022/06/20 00:00:56;;;;;;;1.77;1.10;;;;;;;20.82;60.40;99053.00;4808847;29;20265;-88
2022/06/20 00:03:44;;;;;;;2.03;0.87;;;;;;;20.74;60.30;99047.56;4808669;29;20198;-87
2022/06/20 00:06:15;;;;;;;2.13;1.20;;;;;;;20.67;60.88;99055.31;4825110;29;20255;-87
2022/06/20 00:08:42;;;;;;;2.17;1.10;;;;;;;20.66;61.12;99047.47;4824837;29;20291;-88
2022/06/20 00:11:16;;;;;;;4.03;1.03;;;;;;;20.64;61.08;99044.09;4825018;29;20604;-87
2022/06/20 00:13:46;;;;;;;1.40;0.90;;;;;;;20.58;61.36;99042.03;4825009;29;20181;-87
2022/06/20 00:16:15;;;;;;;5.37;1.80;;;;;;;20.54;62.03;99035.31;4824582;29;20178;-87
2022/06/20 00:18:43;;;;;;;3.03;1.43;;;;;;;20.57;61.71;99043.03;4824704;29;20177;-87
2022/06/20 00:21:17;;;;;;;1.20;0.80;;;;;;;20.57;61.39;99027.03;4824618;29;20265;-87
2022/06/20 00:23:44;;;;;;;2.23;1.00;;;;;;;20.58;60.97;99020.72;4808518;29;20665;-87
2022/06/20 00:26:12;;;;;;;2.13;1.13;;;;;;;20.57;61.14;99029.72;4824762;29;20230;-87
2022/06/20 00:28:39;;;;;;;2.13;1.13;;;;;;;20.57;61.77;99027.03;4824556;29;20174;-87
2022/06/20 00:31:06;;;;;;;2.30;1.30;;;;;;;20.56;61.49;99026.19;4824815;29;20185;-87
2022/06/20 00:33:33;;;;;;;2.30;1.10;;;;;;;20.52;62.05;99027.47;4808350;29;20178;-88
2022/06/20 00:36:00;;;;;;;3.20;1.27;;;;;;;20.47;62.13;99027.06;4824734;29;20174;-87
2022/06/20 00:38:27;;;;;;;2.13;1.17;;;;;;;20.39;62.22;99018.16;4824739;29;20254;-87
2022/06/20 00:41:12;;;;;;;2.10;0.80;;;;;;;20.32;62.47;99009.03;4824428;29;20189;-87
2022/06/20 00:43:45;;;;;;;3.80;1.23;;;;;;;20.18;63.01;99005.81;4824906;29;20231;-88
2022/06/20 00:46:25;;;;;;;2.77;1.10;;;;;;;20.14;63.31;99007.09;4824582;29;20198;-87
2022/06/20 00:49:08;;;;;;;1.90;1.20;;;;;;;20.00;64.20;99006.69;4824618;29;20587;-87
2022/06/20 00:51:45;;;;;;;2.63;1.60;;;;;;;19.93;64.56;99010.91;4824985;29;20194;-87
2022/06/20 00:54:23;;;;;;;2.37;1.13;;;;;;;19.96;63.98;99011.47;4824534;29;20177;-87
2022/06/20 00:57:15;;;;;;;2.33;1.30;;;;;;;19.92;64.08;99011.88;4824287;29;20248;-88
2022/06/20 00:59:47;;;;;;;2.37;1.23;;;;;;;19.92;63.72;99007.41;4820644;29;20204;-87
2022/06/20 01:02:20;;;;;;;1.60;1.10;;;;;;;19.95;63.39;99007.13;4824632;29;20204;-88
2022/06/20 01:05:00;;;;;;;1.93;1.30;;;;;;;19.94;62.82;99005.44;4824669;29;20525;-87
2022/06/20 01:07:33;;;;;;;3.23;1.20;;;;;;;19.95;62.39;98999.16;4824302;29;20668;-87
2022/06/20 01:10:01;;;;;;;2.97;1.43;;;;;;;19.94;62.50;99000.13;4808000;29;20224;-87
2022/06/20 01:12:31;;;;;;;2.00;1.00;;;;;;;19.95;62.81;99003.63;4807914;29;20249;-88
2022/06/20 01:14:57;;;;;;;1.77;1.10;;;;;;;19.93;62.60;98993.13;4808936;29;20552;-87
2022/06/20 01:17:36;;;;;;;2.77;1.50;;;;;;;19.95;62.38;99004.47;4807851;29;20178;-87
2022/06/20 01:20:18;;;;;;;2.33;1.47;;;;;;;19.81;63.20;98988.94;4824487;29;20680;-87
2022/06/20 01:23:05;;;;;;;2.13;1.30;;;;;;;19.65;64.16;99001.16;4824504;29;20186;-87
2022/06/20 01:25:42;;;;;;;1.67;1.20;;;;;;;19.64;63.92;99000.31;4824373;29;20637;-87
2022/06/20 01:28:17;;;;;;;3.10;1.10;;;;;;;19.55;64.39;98995.81;4823866;29;20194;-87
2022/06/20 01:30:46;;;;;;;2.43;1.10;;;;;;;19.54;64.71;98994.16;4824424;29;20174;-87
2022/06/20 01:33:17;;;;;;;3.20;1.30;;;;;;;19.57;64.70;98994.69;4824122;29;20351;-87
2022/06/20 01:38:32;;;;;;;3.83;1.00;;;;;;;19.54;63.82;98991.50;4824088;29;20319;-87
2022/06/20 01:43:46;;;;;;;1.80;1.17;;;;;;;19.48;63.93;98981.41;4824063;29;20273;-87
2022/06/20 01:46:13;;;;;;;3.50;1.37;;;;;;;19.41;63.98;98975.00;4823634;29;20209;-87
2022/06/20 01:48:45;;;;;;;2.67;1.40;;;;;;;19.33;64.36;98982.78;4823645;29;20257;-87
2022/06/20 01:51:22;;;;;;;3.20;1.50;;;;;;;19.25;64.87;98985.31;4823821;29;20241;-87
2022/06/20 01:53:53;;;;;;;2.90;1.43;;;;;;;19.31;64.44;98985.56;4823650;29;20299;-88
2022/06/20 01:56:22;;;;;;;2.27;1.20;;;;;;;19.34;63.80;98987.13;4823900;29;20166;-87
2022/06/20 01:58:59;;;;;;;2.53;1.47;;;;;;;19.30;64.33;98980.41;4823602;29;20234;-88
2022/06/20 02:01:26;;;;;;;1.87;1.10;;;;;;;19.35;63.48;98980.81;4823673;29;20189;-87
2022/06/20 02:03:51;;;;;;;1.83;0.97;;;;;;;19.29;63.62;98976.06;4823584;29;20621;-87
2022/06/20 02:06:19;;;;;;;2.53;1.20;;;;;;;19.27;63.71;98978.03;4825795;29;20214;-87
2022/06/20 02:08:48;;;;;;;2.63;1.30;;;;;;;19.26;63.78;98979.81;4826672;29;20182;-87
2022/06/20 02:11:28;;;;;;;2.67;1.00;;;;;;;19.23;63.98;98979.28;4826845;29;20174;-87
2022/06/20 02:13:59;;;;;;;2.73;1.30;;;;;;;19.17;63.84;98966.56;4810608;29;20187;-87
2022/06/20 02:16:30;;;;;;;2.23;1.23;;;;;;;19.12;64.11;98963.47;4810741;29;20170;-89
2022/06/20 02:19:03;;;;;;;2.47;1.10;;;;;;;19.06;64.26;98958.69;4826930;29;20176;-89
2022/06/20 02:21:32;;;;;;;2.37;1.47;;;;;;;19.02;64.74;98960.81;4826794;29;20165;-89
2022/06/20 02:24:14;;;;;;;1.90;1.23;;;;;;;18.94;65.64;98961.50;4827080;29;20190;-89
2022/06/20 02:26:43;;;;;;;2.70;1.43;;;;;;;18.97;65.53;98963.03;4826637;29;20214;-89
2022/06/20 02:29:23;;;;;;;3.07;1.57;;;;;;;18.97;65.15;98961.19;4826951;29;20716;-89
2022/06/20 02:32:02;;;;;;;1.90;1.10;;;;;;;18.94;65.34;98958.84;4810423;29;20698;-89
2022/06/20 02:34:30;;;;;;;2.67;1.50;;;;;;;18.92;64.95;98963.44;4826686;29;20183;-89
2022/06/20 02:37:11;;;;;;;7.47;1.83;;;;;;;18.79;65.71;98964.66;4826892;29;20501;-89
2022/06/20 02:39:43;;;;;;;2.23;1.20;;;;;;;18.74;66.00;98958.91;4826861;29;20170;-88
2022/06/20 02:42:18;;;;;;;2.27;1.27;;;;;;;18.76;66.08;98967.59;4826551;29;20204;-89
2022/06/20 02:44:48;;;;;;;2.37;1.30;;;;;;;18.78;65.96;98958.53;4826803;29;20205;-89
2022/06/20 02:47:16;;;;;;;2.50;1.20;;;;;;;18.85;65.82;98950.84;4810136;29;20712;-89
2022/06/20 02:49:45;;;;;;;3.70;1.47;;;;;;;18.84;65.20;98959.81;4810149;29;20721;-89
2022/06/20 02:52:17;;;;;;;3.67;1.70;;;;;;;18.80;65.24;98958.38;4826233;29;20642;-89
2022/06/20 02:54:47;;;;;;;4.03;1.77;;;;;;;18.72;65.46;98950.25;4826612;29;20240;-88
2022/06/20 02:57:21;;;;;;;3.20;1.60;;;;;;;18.73;65.58;98952.78;4826249;29;20317;-89
2022/06/20 02:59:53;;;;;;;2.77;1.73;;;;;;;18.59;66.88;98958.47;4826546;29;20170;-89
2022/06/20 03:02:25;;;;;;;2.83;1.53;;;;;;;18.52;67.39;98960.00;4809887;29;20565;-89
2022/06/20 03:04:53;;;;;;;3.63;1.73;;;;;;;18.58;66.93;98970.06;4825917;29;20174;-89
2022/06/20 03:07:25;;;;;;;3.23;1.60;;;;;;;18.55;67.47;98962.38;4826024;29;20213;-89
2022/06/20 03:10:01;;;;;;;2.80;1.57;;;;;;;18.62;67.41;98958.19;4810071;29;20619;-89
2022/06/20 03:12:27;;;;;;;4.13;2.10;;;;;;;18.67;66.92;98958.63;4826096;29;20245;-88
2022/06/20 03:14:58;;;;;;;2.90;1.57;;;;;;;18.64;67.03;98964.22;4809695;29;20656;-89
2022/06/20 03:17:25;;;;;;;3.37;1.80;;;;;;;18.57;67.54;98959.56;4825804;29;20176;-89
2022/06/20 03:20:00;;;;;;;3.03;1.70;;;;;;;18.48;67.88;98952.41;4825879;29;20191;-88
2022/06/20 03:22:52;;;;;;;2.67;1.57;;;;;;;18.42;68.45;98964.41;4825870;29;20169;-89
2022/06/20 03:25:20;;;;;;;2.77;1.60;;;;;;;18.47;68.67;98969.28;4817668;29;20323;-89
2022/06/20 03:27:51;;;;;;;5.80;1.87;;;;;;;18.53;68.46;98972.28;4825737;29;20185;-88
2022/06/20 03:30:34;;;;;;;3.30;1.80;;;;;;;18.65;67.93;98965.06;4825786;29;20240;-89
2022/06/20 03:33:05;;;;;;;7.07;2.07;;;;;;;18.72;67.62;98960.88;4825773;29;20269;-88
2022/06/20 03:35:33;;;;;;;3.83;1.73;;;;;;;18.77;67.39;98956.84;4809338;29;20170;-89
2022/06/20 03:38:03;;;;;;;3.70;2.13;;;;;;;18.71;67.73;98949.41;4825911;29;20267;-88
2022/06/20 03:40:30;;;;;;;4.23;1.90;;;;;;;18.69;68.24;98953.16;4825681;29;20737;-88
2022/06/20 03:42:59;;;;;;;3.67;1.83;;;;;;;18.75;68.21;98955.28;4825582;29;20180;-88
2022/06/20 03:45:30;;;;;;;4.23;2.13;;;;;;;18.72;68.37;98964.38;4825776;29;20691;-88
2022/06/20 03:48:08;;;;;;;2.93;2.00;;;;;;;18.66;69.37;98967.56;4825295;29;20262;-88
2022/06/20 03:50:42;;;;;;;5.73;2.10;;;;;;;18.64;70.37;98960.72;4825787;29;20176;-88
2022/06/20 03:53:43;;;;;;;4.73;2.17;;;;;;;18.68;69.92;98962.13;4825663;29;20188;-88
2022/06/20 03:56:22;;;;;;;2.67;1.60;;;;;;;18.82;69.54;98954.59;4825327;29;20197;-88
2022/06/20 03:59:12;;;;;;;3.37;1.70;;;;;;;18.94;69.16;98950.03;4825639;29;20206;-88
2022/06/20 04:01:50;;;;;;;3.27;1.90;;;;;;;18.99;68.67;98947.81;4825102;29;20201;-88
2022/06/20 04:04:29;;;;;;;4.40;1.90;;;;;;;19.06;69.07;98945.41;4825329;29;20174;-88
2022/06/20 04:07:08;;;;;;;3.17;1.80;;;;;;;19.16;69.12;98954.22;4825174;29;20208;-86
2022/06/20 04:12:54;;;;;;;4.90;2.43;;;;;;;19.20;70.05;98937.88;4824875;29;20193;-86
2022/06/20 04:15:39;;;;;;;2.27;1.40;;;;;;;19.25;69.27;98942.78;4809047;29;20174;-88
2022/06/20 04:18:29;;;;;;;3.00;1.17;;;;;;;19.28;68.50;98948.66;4825413;29;20183;-88
2022/06/20 04:21:19;;;;;;;3.93;1.30;;;;;;;19.40;68.69;98938.75;4825332;29;20263;-88
2022/06/20 04:24:12;;;;;;;3.13;1.30;;;;;;;19.63;68.17;98936.66;4808603;29;20192;-88
2022/06/20 04:26:47;;;;;;;2.07;1.10;;;;;;;19.75;68.84;98940.81;4824821;29;20221;-85
2022/06/20 04:29:19;;;;;;;4.33;1.20;;;;;;;19.85;68.86;98931.84;4807923;29;20180;-86
2022/06/20 04:31:51;;;;;;;2.73;1.37;;;;;;;19.92;67.69;98935.59;4825155;29;20316;-85
2022/06/20 04:34:16;;;;;;;2.10;1.13;;;;;;;20.03;67.08;98931.91;4824563;29;20192;-86
2022/06/20 04:36:50;;;;;;;3.10;1.50;;;;;;;20.25;65.73;98930.75;4824749;29;20177;-86
2022/06/20 04:39:28;;;;;;;2.53;1.33;;;;;;;20.36;64.67;98931.38;4824748;29;20200;-88
2022/06/20 04:42:09;;;;;;;4.77;1.27;;;;;;;20.50;64.09;98941.56;4824725;29;20170;-86
2022/06/20 04:44:59;;;;;;;2.77;1.07;;;;;;;20.59;62.84;98926.53;4824688;29;20184;-86
2022/06/20 04:47:40;;;;;;;3.10;1.40;;;;;;;20.74;63.22;98925.88;4823734;29;20221;-86
2022/06/20 04:50:09;;;;;;;1.90;1.20;;;;;;;20.90;62.89;98937.69;4824613;29;20658;-87
2022/06/20 04:52:36;;;;;;;2.57;1.10;;;;;;;21.01;62.40;98933.00;4824806;29;20215;-86
2022/06/20 04:55:03;;;;;;;3.03;1.43;;;;;;;20.97;62.06;98936.94;4824504;29;20186;-87
2022/06/20 04:57:32;;;;;;;2.23;1.37;;;;;;;21.12;61.94;98934.63;4824199;29;20182;-86
2022/06/20 05:00:02;;;;;;;3.33;1.10;;;;;;;21.13;61.69;98937.13;4824701;29;20258;-87
2022/06/20 05:02:27;;;;;;;2.03;1.00;;;;;;;21.32;61.97;98930.81;4823977;29;20649;-86
2022/06/20 05:04:58;;;;;;;2.30;1.10;;;;;;;21.22;61.77;98938.91;4824189;29;20186;-86
2022/06/20 05:07:31;;;;;;;2.87;1.63;;;;;;;21.20;62.41;98937.38;4807984;29;20209;-86
2022/06/20 05:10:16;;;;;;;3.53;1.50;;;;;;;21.33;62.75;98938.66;4824389;29;20185;-89
2022/06/20 05:12:49;;;;;;;2.80;1.53;;;;;;;21.53;62.53;98938.50;4824363;29;20170;-87
2022/06/20 05:15:20;;;;;;;3.50;1.87;;;;;;;21.70;62.50;98930.44;4807919;29;20173;-88
2022/06/20 05:17:48;;;;;;;1.77;1.10;;;;;;;21.69;60.30;98930.63;4824283;29;20323;-88
2022/06/20 05:20:31;;;;;;;7.20;1.90;;;;;;;21.67;60.02;98928.09;4808157;29;20189;-87
2022/06/20 05:23:13;;;;;;;1.93;1.30;;;;;;;21.82;59.41;98931.03;4824262;29;20167;-87
2022/06/20 05:25:40;;;;;;;3.37;1.30;;;;;;;21.96;59.26;98930.50;4823761;29;20206;-87
2022/06/20 05:28:12;;;;;;;3.03;1.60;;;;;;;22.18;58.53;98923.78;4823733;29;20242;-87
2022/06/20 05:30:41;;;;;;;2.23;1.03;;;;;;;22.20;56.83;98932.47;4807537;29;20187;-88
2022/06/20 05:33:34;;;;;;;1.90;1.10;;;;;;;22.36;57.73;98921.88;4823634;29;20185;-88
2022/06/20 05:36:12;;;;;;;1.87;1.27;;;;;;;22.79;57.40;98921.75;4807483;29;20557;-88
2022/06/20 05:38:53;;;;;;;7.87;1.73;;;;;;;22.97;55.53;98921.59;4807692;29;20251;-87
2022/06/20 05:41:18;;;;;;;2.93;1.33;;;;;;;23.06;54.81;98923.31;4826850;29;20174;-88
2022/06/20 05:43:44;;;;;;;2.17;1.30;;;;;;;23.23;56.16;98927.66;4811207;29;20181;-88
2022/06/20 05:46:16;;;;;;;5.63;1.53;;;;;;;23.25;55.27;98925.66;4827308;29;20201;-88
2022/06/20 05:48:53;;;;;;;3.03;1.20;;;;;;;23.30;54.37;98923.31;4827267;29;20624;-89
2022/06/20 05:51:25;;;;;;;4.53;1.40;;;;;;;23.09;52.87;98920.28;4827514;29;20181;-88
2022/06/20 05:54:02;;;;;;;1.90;0.90;;;;;;;23.07;53.71;98923.13;4827221;29;20219;-89
2022/06/20 05:56:35;;;;;;;2.30;1.10;;;;;;;23.09;53.46;98928.31;4810924;29;20193;-88
2022/06/20 05:59:02;;;;;;;3.67;1.53;;;;;;;23.19;53.64;98927.16;4826933;29;20231;-89
2022/06/20 06:01:38;;;;;;;2.30;1.40;;;;;;;23.69;53.74;98923.50;4810736;29;20205;-88
2022/06/20 06:04:24;;;;;;;3.90;1.37;;;;;;;24.09;52.62;98920.81;4827323;29;20527;-87
2022/06/20 06:07:00;;;;;;;1.83;1.07;;;;;;;24.28;51.62;98914.22;4811076;29;20206;-88
2022/06/20 06:09:44;;;;;;;1.50;0.90;;;;;;;24.02;48.77;98918.97;4827003;29;20173;-89
2022/06/20 06:12:24;;;;;;;2.40;1.23;;;;;;;24.11;49.31;98913.44;4811586;29;20181;-88
2022/06/20 06:14:58;;;;;;;1.47;0.70;;;;;;;24.44;48.78;98915.03;4826894;29;20177;-89
2022/06/20 06:17:35;;;;;;;1.53;1.00;;;;;;;24.66;49.54;98910.72;4810873;29;20540;-88
2022/06/20 06:20:05;;;;;;;1.83;1.10;;;;;;;24.92;48.16;98913.94;4826774;29;20190;-89
2022/06/20 06:22:44;;;;;;;2.53;1.10;;;;;;;25.30;47.21;98908.69;4826708;29;20178;-89
2022/06/20 06:25:22;;;;;;;1.93;1.03;;;;;;;25.51;47.72;98904.34;4810453;29;20235;-90
2022/06/20 06:27:52;;;;;;;2.40;1.47;;;;;;;25.74;47.45;98908.81;4826392;29;20555;-88
2022/06/20 06:31:01;;;;;;;2.30;1.00;;;;;;;25.88;46.98;98908.03;4810372;29;20250;-88
2022/06/20 06:33:56;;;;;;;2.43;1.23;;;;;;;26.17;47.01;98892.81;4810353;29;20178;-88
2022/06/20 06:36:44;;;;;;;2.07;1.30;;;;;;;26.51;47.16;98883.31;4823406;29;20230;-89
2022/06/20 06:39:33;;;;;;;2.33;1.40;;;;;;;26.66;46.08;98886.81;4810781;29;20180;-89
2022/06/20 06:42:27;;;;;;;3.00;1.13;;;;;;;27.04;45.02;98885.63;4826236;29;20577;-90
2022/06/20 06:44:54;;;;;;;1.53;0.87;;;;;;;26.87;43.68;98886.06;4810120;29;20193;-90
2022/06/20 06:47:46;;;;;;;2.60;1.23;;;;;;;27.03;44.38;98886.66;4825994;29;20216;-89
2022/06/20 06:50:55;;;;;;;;;;;;;;;;;;;;;
2022/06/20 06:53:33;;;;;;;1.67;1.10;;;;;;;27.41;43.57;98887.28;4814987;29;20679;-90
2022/06/20 06:56:12;;;;;;;3.13;1.30;;;;;;;27.85;42.87;98876.22;4810044;29;20242;-89
2022/06/20 06:58:51;;;;;;;6.35;2.28;;;;;;;27.98;41.62;98873.63;4825982;29;20645;-89
2022/06/20 07:01:28;;;;;;;2.47;1.30;;;;;;;27.85;41.62;98877.06;4826394;29;20186;-91
2022/06/20 07:04:24;;;;;;;2.58;1.23;;;;;;;27.94;42.63;98864.25;4825915;29;20162;-91
2022/06/20 07:07:13;;;;;;;9.52;1.40;;;;;;;27.76;42.32;98869.31;4816070;29;20230;-90
2022/06/20 07:09:56;;;;;;;5.10;1.40;;;;;;;27.70;42.84;98867.41;4809829;29;20174;-90
2022/06/20 07:12:42;;;;;;;3.50;1.13;;;;;;;27.68;41.22;98864.91;4826296;29;20249;-91
2022/06/20 07:15:26;;;;;;;2.35;1.48;;;;;;;27.84;42.42;98869.16;4826344;29;20181;-89
2022/06/20 07:18:46;;;;;;;;;;;;;;;;;;;;;
2022/06/20 07:24:37;;;;;;;2.03;1.17;;;;;;;28.13;41.53;98851.97;4805298;29;20209;-91
2022/06/20 07:27:11;;;;;;;2.95;1.40;;;;;;;28.32;40.19;98856.63;4809663;29;20274;-90
2022/06/20 07:30:34;;;;;;;2.47;1.15;;;;;;;28.45;39.75;98848.59;4809666;29;20174;-92
2022/06/20 07:36:51;;;;;;;7.60;1.20;;;;;;;28.34;40.41;98849.16;4794501;29;20194;-90
2022/06/20 07:39:23;;;;;;;2.45;1.10;;;;;;;28.49;41.85;98849.84;4809673;29;20177;-91
2022/06/20 07:42:17;;;;;;;1.55;0.85;;;;;;;28.35;40.70;98851.69;4825969;29;20178;-91
2022/06/20 07:45:32;;;;;;;;;;;;;;;;;;;;;
2022/06/20 07:51:21;;;;;;;5.82;1.10;;;;;;;29.02;39.92;98840.06;4734382;30;20606;-91
2022/06/20 07:57:14;;;;;;;3.35;1.10;;;;;;;29.55;37.84;98844.50;4822369;29;20196;-92
2022/06/20 08:00:12;;;;;;;4.45;1.00;;;;;;;29.40;38.92;98840.34;4810690;29;20202;-90
2022/06/20 08:03:50;;;;;;;2.20;1.00;;;;;;;29.48;39.26;98826.66;4824464;29;20789;-92
2022/06/20 08:06:04;;;;;;;3.90;1.25;;;;;;;29.45;38.07;98827.91;4815337;29;20298;-91
2022/06/20 08:09:27;;;;;;;;;;;;;;;;;;;;;
2022/06/20 08:12:41;;;;;;;3.90;1.63;;;;;;;30.15;39.47;98819.06;4825650;29;20177;-93
2022/06/20 08:15:53;;;;;;;;;;;;;;;;;;;;;
2022/06/20 08:18:38;;;;;;;;;;;;;;;;;;;;;
2022/06/20 08:21:41;;;;;;;1.58;1.02;;;;;;;30.97;37.13;98815.59;4825758;29;20176;-92
2022/06/20 08:25:08;;;;;;;2.30;0.98;;;;;;;31.18;35.46;98815.22;4751813;30;20295;-91
2022/06/20 08:31:53;;;;;;;;;;;;;;;;;;;;;
2022/06/20 08:38:23;;;;;;;;;;;;;;;;;;;;;
2022/06/20 08:41:08;;;;;;;3.00;0.77;;;;;;;32.04;33.00;98794.44;4664780;30;20196;-92
2022/06/20 08:44:01;;;;;;;2.75;1.15;;;;;;;31.91;31.36;98793.72;4665063;30;20726;-90
2022/06/20 08:47:19;;;;;;;;;;;;;;;;;;;;;
2022/06/20 08:50:30;;;;;;;8.00;1.90;;;;;;;31.92;31.71;98796.19;4670401;30;20203;-92
2022/06/20 08:53:31;;;;;;;2.15;0.95;;;;;;;31.25;32.60;98797.03;4682211;30;20213;-92
2022/06/20 08:57:03;;;;;;;;;;;;;;;;;;;;;
2022/06/20 09:00:00;;;;;;;;;;;;;;;;;;;;;
2022/06/20 09:02:43;;;;;;;1.52;0.52;;;;;;;31.83;32.35;98794.84;4698099;30;20281;-92
2022/06/20 09:05:47;;;;;;;;;;;;;;;;;;;;;
2022/06/20 09:08:52;;;;;;;;;;;;;;;;;;;;;
2022/06/20 09:15:42;;;;;;;;;;;;;;;;;;;;;
2022/06/20 09:22:44;;;;;;;;;;;;;;;;;;;;;
2022/06/20 09:25:24;;;;;;;2.47;0.68;;;;;;;32.49;30.20;98780.53;4659233;30;20492;-92
2022/06/20 09:28:16;;;;;;;0.95;0.57;;;;;;;32.37;29.50;98777.75;4699813;30;20296;-91
2022/06/20 09:30:59;;;;;;;2.38;0.93;;;;;;;32.72;30.27;98775.22;4700144;30;20174;-90
2022/06/20 09:34:28;;;;;;;1.65;0.77;;;;;;;32.91;30.32;98776.81;4716193;30;20202;-92
2022/06/20 09:40:56;;;;;;;1.38;0.70;;;;;;;32.81;31.88;98762.97;4659182;30;20212;-91
2022/06/20 09:54:32;;;;;;;;;;;;;;;;;;;;;
2022/06/20 09:58:18;;;;;;;;;;;;;;;;;;;;;
2022/06/20 10:00:45;;;;;;;;;;;;;;;;;;;;;
2022/06/20 10:04:06;;;;;;;3.10;0.80;;;;;;;33.33;27.88;98756.69;4697672;30;20252;-91
2022/06/20 10:10:33;;;;;;;4.70;2.40;;;;;;;33.61;29.54;98749.75;4757760;29;20239;-90
2022/06/20 10:21:34;;;;;;;;;;;;;;;;;;;;;
2022/06/20 10:24:32;;;;;;;6.03;2.83;;;;;;;34.44;28.94;98742.84;4734380;30;20200;-91
2022/06/20 10:27:43;;;;;;;;;;;;;;;;;;;;;
2022/06/20 10:30:49;;;;;;;;;;;;;;;;;;;;;
2022/06/20 10:33:55;;;;;;;;;;;;;;;;;;;;;
2022/06/20 10:40:58;;;;;;;4.75;1.25;;;;;;;33.71;27.59;98733.69;4743836;30;20203;-91
2022/06/20 10:54:09;;;;;;;3.95;1.20;;;;;;;33.77;28.75;98702.81;4683028;30;20290;-91
2022/06/20 10:57:20;;;;;;;1.80;1.00;;;;;;;33.65;28.88;98712.91;4683542;30;20286;-91
2022/06/20 11:00:53;;;;;;;1.95;1.02;;;;;;;33.74;29.50;98711.44;4683420;30;20187;-91
2022/06/20 11:18:30;;;;;;;2.17;1.23;;;;;;;33.70;27.73;98707.56;4622149;30;20727;-91
2022/06/20 11:43:32;;;;;;;3.13;1.00;;;;;;;34.09;28.68;98685.03;4752203;30;20188;-91
2022/06/20 12:07:33;;;;;;;5.15;0.93;;;;;;;34.59;27.50;98657.94;4614377;31;20666;-91
2022/06/20 12:27:51;;;;;;;2.72;1.00;;;;;;;34.78;27.38;98639.44;4581338;31;20241;-91
2022/06/20 13:21:35;;;;;;;;;;;;;;;;;;;;;
2022/06/20 15:22:57;;;;;;;;;;;;;;;;;;;;;
2022/06/20 15:29:08;;;;;;;;;;;;;;;;;;;;;
2022/06/20 15:32:23;;;;;;;;;;;;;;;;;;;;;
2022/06/20 15:34:50;;;;;;;2.10;0.98;;;;;;;32.59;32.30;98483.13;4624066;30;20201;-89
2022/06/20 15:37:54;;;;;;;1.38;1.00;;;;;;;31.40;32.58;98493.28;4707644;30;20304;-90
2022/06/20 15:40:51;;;;;;;3.15;1.38;;;;;;;30.81;33.59;98489.44;4797629;29;20201;-90
2022/06/20 15:44:06;;;;;;;4.10;1.02;;;;;;;30.86;33.54;98492.28;4780999;29;20240;-90
2022/06/20 15:46:22;;;;;;;2.60;1.17;;;;;;;30.55;33.45;98483.47;4795181;29;20254;-89
2022/06/20 15:49:00;;;;;;;3.00;1.27;;;;;;;29.70;34.75;98502.00;4796574;29;20255;-90
2022/06/20 15:51:36;;;;;;;4.32;1.40;;;;;;;29.85;34.70;98496.31;4807358;29;20170;-91
2022/06/20 15:54:21;;;;;;;1.90;1.13;;;;;;;29.70;34.25;98491.19;4805467;29;20201;-90
2022/06/20 15:57:14;;;;;;;2.42;1.27;;;;;;;29.53;34.33;98495.47;4798108;29;20706;-90
2022/06/20 16:00:11;;;;;;;2.15;1.33;;;;;;;29.73;34.68;98477.25;4791874;29;20269;-90
2022/06/20 16:02:57;;;;;;;3.05;1.45;;;;;;;29.72;34.11;98489.09;4796948;29;20179;-90
2022/06/20 16:05:50;;;;;;;6.65;1.25;;;;;;;29.78;34.34;98485.56;4800069;29;20538;-90
2022/06/20 16:08:39;;;;;;;2.95;1.58;;;;;;;29.83;34.84;98488.44;4793269;29;20677;-90
2022/06/20 16:11:22;;;;;;;2.83;1.33;;;;;;;29.86;34.51;98486.31;4819274;29;20197;-89
2022/06/20 16:13:48;;;;;;;3.03;1.73;;;;;;;29.97;34.93;98485.63;4795473;29;20182;-89
2022/06/20 16:16:28;;;;;;;2.95;1.30;;;;;;;29.57;33.79;98490.44;4816363;29;20652;-92
2022/06/20 16:19:07;;;;;;;2.80;1.35;;;;;;;29.28;34.01;98482.91;4815484;29;20643;-90
2022/06/20 16:22:18;;;;;;;2.17;1.23;;;;;;;29.01;34.55;98485.69;4801685;29;20182;-90
2022/06/20 16:25:05;;;;;;;1.92;1.00;;;;;;;29.18;34.19;98491.44;4792846;29;20202;-89
2022/06/20 16:27:34;;;;;;;4.05;1.65;;;;;;;29.41;34.55;98483.66;4820341;29;20210;-90
2022/06/20 16:30:19;;;;;;;3.72;1.33;;;;;;;29.88;34.33;98484.22;4824777;29;20225;-90
2022/06/20 16:32:52;;;;;;;6.20;1.63;;;;;;;30.05;34.32;98482.66;4808409;29;20184;-91
2022/06/20 16:35:25;;;;;;;3.92;1.60;;;;;;;30.21;33.42;98482.94;4808727;29;20182;-90
2022/06/20 16:38:11;;;;;;;2.58;1.50;;;;;;;30.30;33.06;98486.16;4824727;29;20174;-90
2022/06/20 16:40:47;;;;;;;2.42;1.30;;;;;;;30.14;33.52;98482.16;4824676;29;20186;-90
2022/06/20 16:43:14;;;;;;;2.72;1.40;;;;;;;30.07;33.05;98491.34;4808407;29;20236;-90
2022/06/20 16:45:50;;;;;;;3.50;1.80;;;;;;;30.18;33.10;98479.84;4808215;29;20569;-90
2022/06/20 16:48:57;;;;;;;2.40;1.30;;;;;;;29.97;33.09;98485.63;4823569;29;20180;-89
2022/06/20 16:51:38;;;;;;;2.60;1.30;;;;;;;29.89;32.75;98483.19;4749883;30;20195;-90
2022/06/20 16:54:26;;;;;;;3.30;1.90;;;;;;;30.02;32.98;98477.69;4808621;29;20223;-90
2022/06/20 16:56:56;;;;;;;5.55;1.77;;;;;;;30.20;33.62;98486.69;4806894;29;20185;-90
2022/06/20 16:59:41;;;;;;;2.65;1.45;;;;;;;30.27;32.50;98481.19;4822827;29;20201;-89
2022/06/20 17:02:15;;;;;;;4.10;2.13;;;;;;;30.18;32.41;98483.38;4804652;29;20513;-90
2022/06/20 17:05:16;;;;;;;3.88;1.60;;;;;;;30.00;32.83;98488.72;4817468;29;20181;-89
2022/06/20 17:07:57;;;;;;;5.40;2.92;;;;;;;30.08;32.83;98487.63;4798837;29;20205;-90
2022/06/20 17:10:41;;;;;;;2.05;1.33;;;;;;;30.18;33.05;98483.38;4829277;29;20236;-90
2022/06/20 17:13:16;;;;;;;7.35;3.67;;;;;;;30.19;33.48;98481.50;4824161;29;20617;-91
2022/06/20 17:16:08;;;;;;;3.40;1.95;;;;;;;30.14;33.87;98482.16;4814983;29;20321;-90
2022/06/20 17:18:58;;;;;;;2.70;1.45;;;;;;;30.04;33.97;98475.56;4819316;29;20185;-91
2022/06/20 17:21:47;;;;;;;3.15;1.42;;;;;;;29.98;34.17;98477.28;4808494;29;20182;-92
2022/06/20 17:24:32;;;;;;;2.88;1.50;;;;;;;29.60;35.38;98496.25;4803251;29;20197;-91
2022/06/20 17:27:13;;;;;;;4.45;2.10;;;;;;;29.43;35.71;98486.97;4806793;29;20693;-92
2022/06/20 17:30:00;;;;;;;4.03;1.88;;;;;;;29.25;35.71;98486.88;4790152;29;20210;-91
2022/06/20 17:32:44;;;;;;;2.47;1.50;;;;;;;29.17;36.10;98490.63;4790939;29;20175;-93
2022/06/20 17:35:15;;;;;;;2.75;1.10;;;;;;;29.08;36.26;98482.97;4813371;29;20196;-91
2022/06/20 17:37:59;;;;;;;2.90;1.40;;;;;;;28.96;36.11;98480.13;4826845;29;20174;-92
2022/06/20 17:40:55;;;;;;;2.45;1.38;;;;;;;28.91;36.24;98489.88;4827177;29;20177;-92
2022/06/20 17:43:45;;;;;;;9.43;1.90;;;;;;;28.94;36.35;98481.38;4809391;29;20193;-93
2022/06/20 17:46:23;;;;;;;2.15;1.38;;;;;;;28.93;37.09;98482.44;4827836;29;20166;-91
2022/06/20 17:49:02;;;;;;;3.45;1.80;;;;;;;29.01;37.23;98483.00;4811449;29;20682;-91
2022/06/20 17:51:30;;;;;;;4.05;1.75;;;;;;;29.05;37.50;98486.94;4811397;29;20173;-91
2022/06/20 17:53:59;;;;;;;3.03;1.40;;;;;;;29.05;37.54;98480.72;4811324;29;20598;-91
2022/06/20 17:56:35;;;;;;;6.20;1.08;;;;;;;29.03;37.77;98480.09;4827437;29;20193;-91
2022/06/20 17:59:07;;;;;;;2.58;1.15;;;;;;;28.81;38.51;98481.41;4827651;29;20609;-91
2022/06/20 18:01:50;;;;;;;2.30;1.40;;;;;;;28.71;38.34;98481.03;4811466;29;20596;-92
2022/06/20 18:04:24;;;;;;;2.17;1.40;;;;;;;28.69;38.02;98481.25;4827225;29;20178;-90
2022/06/20 18:06:52;;;;;;;4.93;1.52;;;;;;;28.59;38.22;98480.81;4811117;29;20477;-92
2022/06/20 18:09:27;;;;;;;3.00;1.50;;;;;;;28.42;38.18;98491.22;4826816;29;20229;-91
2022/06/20 18:12:43;;;;;;;3.15;1.20;;;;;;;28.29;39.54;98502.03;4826919;29;20233;-90
2022/06/20 18:15:20;;;;;;;3.42;1.98;;;;;;;28.16;40.31;98504.72;4754135;30;20221;-90
2022/06/20 18:17:52;;;;;;;3.30;1.63;;;;;;;28.06;40.91;98507.00;4753283;30;20180;-89
2022/06/20 18:20:39;;;;;;;3.20;1.60;;;;;;;27.94;41.89;98508.63;4802602;29;20201;-90
2022/06/20 18:23:41;;;;;;;2.38;1.35;;;;;;;27.83;40.91;98512.75;4827165;29;20226;-90
2022/06/20 18:26:37;;;;;;;2.10;1.40;;;;;;;27.78;41.22;98514.38;4788827;29;20208;-90
2022/06/20 18:29:06;;;;;;;3.08;1.58;;;;;;;27.73;40.70;98515.00;4809631;29;20190;-89
2022/06/20 18:31:36;;;;;;;2.10;1.10;;;;;;;27.56;40.99;98521.00;4810559;29;20257;-88
2022/06/20 18:34:09;;;;;;;3.08;1.65;;;;;;;27.56;41.49;98512.91;4827124;29;20166;-89
2022/06/20 18:36:34;;;;;;;3.63;1.88;;;;;;;27.53;40.86;98511.47;4826781;29;20162;-89
2022/06/20 18:39:09;;;;;;;3.85;2.00;;;;;;;27.43;40.40;98522.63;4827271;29;20185;-89
2022/06/20 18:41:35;;;;;;;7.30;1.98;;;;;;;27.31;40.45;98518.81;4826443;29;20213;-89
2022/06/20 18:44:08;;;;;;;5.78;2.13;;;;;;;27.22;40.93;98520.03;4826404;29;20182;-90